createdAt,value
2023-03-25T00:00:17.409Z,13.50
2023-03-25T00:02:46.099Z,5.90
2023-03-25T00:05:14.906Z,11.43
2023-03-25T00:07:43.290Z,9.97
2023-03-25T00:10:13.810Z,7.10
2023-03-25T00:12:42.704Z,5.70
2023-03-25T00:15:12.857Z,10.67
2023-03-25T00:17:40.735Z,9.47
2023-03-25T00:20:10.330Z,7.10
2023-03-25T00:22:41.009Z,6.47
2023-03-25T00:25:10.287Z,6.97
2023-03-25T00:27:39.347Z,10.93
2023-03-25T00:30:08.876Z,12.60
2023-03-25T00:32:36.645Z,10.27
2023-03-25T00:35:04.554Z,10.00
2023-03-25T00:37:32.391Z,7.70
2023-03-25T00:40:00.239Z,7.70
2023-03-25T00:42:28.455Z,7.03
2023-03-25T00:44:57.833Z,6.80
2023-03-25T00:47:25.678Z,9.63
2023-03-25T00:49:53.512Z,10.23
2023-03-25T00:52:23.078Z,10.00
2023-03-25T00:54:52.722Z,11.20
2023-03-25T00:57:22.293Z,9.13
2023-03-25T00:59:51.395Z,6.27
2023-03-25T01:02:21.692Z,8.57
2023-03-25T01:04:50.825Z,5.57
2023-03-25T01:07:20.126Z,9.00
2023-03-25T01:09:48.701Z,8.90
2023-03-25T01:12:17.074Z,10.27
2023-03-25T01:14:44.704Z,11.33
2023-03-25T01:17:12.491Z,7.60
2023-03-25T01:19:41.471Z,7.53
2023-03-25T01:22:09.317Z,6.40
2023-03-25T01:24:37.190Z,10.63
2023-03-25T01:27:05.053Z,10.13
2023-03-25T01:29:33.074Z,11.07
2023-03-25T01:32:00.826Z,9.27
2023-03-25T01:34:28.703Z,6.70
2023-03-25T01:36:58.235Z,9.63
2023-03-25T01:39:26.076Z,16.90
2023-03-25T01:41:55.157Z,13.23
2023-03-25T01:45:00.554Z,8.63
2023-03-25T01:47:28.521Z,8.83
2023-03-25T01:49:56.465Z,12.90
2023-03-25T01:52:26.877Z,8.20
2023-03-25T01:54:55.760Z,7.90
2023-03-25T01:57:25.787Z,10.53
2023-03-25T01:59:55.420Z,5.70
2023-03-25T02:02:25.479Z,10.50
2023-03-25T02:04:59.207Z,8.00
2023-03-25T02:07:30.973Z,7.27
2023-03-25T02:10:00.712Z,15.70
2023-03-25T02:12:28.517Z,7.90
2023-03-25T02:14:57.415Z,12.50
2023-03-25T02:17:29.190Z,7.63
2023-03-25T02:20:32.457Z,13.70
2023-03-25T02:23:14.031Z,9.20
2023-03-25T02:25:54.909Z,8.00
2023-03-25T02:28:29.669Z,13.70
2023-03-25T02:31:22.570Z,9.50
2023-03-25T02:34:13.582Z,9.23
2023-03-25T02:36:57.308Z,8.97
2023-03-25T02:39:32.116Z,11.00
2023-03-25T02:42:05.856Z,9.23
2023-03-25T02:44:38.211Z,9.80
2023-03-25T02:47:08.277Z,11.23
2023-03-25T02:49:37.758Z,9.77
2023-03-25T02:52:08.406Z,9.33
2023-03-25T02:54:39.251Z,11.00
2023-03-25T02:57:07.830Z,8.63
2023-03-25T02:59:38.344Z,9.20
2023-03-25T03:02:09.657Z,7.50
2023-03-25T03:04:49.380Z,10.30
2023-03-25T03:07:25.228Z,9.80
2023-03-25T03:10:00.225Z,12.83
2023-03-25T03:12:41.571Z,8.60
2023-03-25T03:15:22.902Z,6.50
2023-03-25T03:17:58.194Z,8.00
2023-03-25T03:20:32.983Z,8.53
2023-03-25T03:23:06.093Z,8.97
2023-03-25T03:25:38.151Z,11.40
2023-03-25T03:28:09.045Z,9.30
2023-03-25T03:30:43.795Z,6.20
2023-03-25T03:33:17.041Z,10.00
2023-03-25T03:35:50.453Z,8.37
2023-03-25T03:38:20.865Z,8.47
2023-03-25T03:40:52.838Z,9.83
2023-03-25T03:43:24.830Z,8.80
2023-03-25T03:45:54.127Z,7.10
2023-03-25T03:48:24.354Z,7.63
2023-03-25T03:50:54.521Z,8.30
2023-03-25T03:53:24.435Z,9.13
2023-03-25T03:55:54.822Z,7.87
2023-03-25T03:58:28.543Z,6.23
2023-03-25T04:01:03.056Z,9.43
2023-03-25T04:03:38.680Z,6.73
2023-03-25T04:06:13.521Z,4.50
2023-03-25T04:08:51.828Z,10.30
2023-03-25T04:11:23.550Z,5.57
2023-03-25T04:13:53.335Z,12.50
2023-03-25T04:16:21.114Z,9.33
2023-03-25T04:18:48.948Z,8.93
2023-03-25T04:21:17.712Z,9.17
2023-03-25T04:23:46.118Z,9.10
2023-03-25T04:26:13.960Z,7.43
2023-03-25T04:28:44.610Z,5.23
2023-03-25T04:31:16.000Z,12.70
2023-03-25T04:33:46.689Z,6.67
2023-03-25T04:36:15.121Z,10.70
2023-03-25T04:38:45.773Z,6.77
2023-03-25T04:41:15.089Z,4.97
2023-03-25T04:43:45.092Z,6.70
2023-03-25T04:46:15.775Z,4.73
2023-03-25T04:48:45.106Z,10.73
2023-03-25T04:51:13.545Z,8.63
2023-03-25T04:53:41.822Z,13.50
2023-03-25T04:56:16.042Z,7.70
2023-03-25T04:58:45.464Z,12.27
2023-03-25T05:01:22.028Z,6.67
2023-03-25T05:03:50.397Z,9.53
2023-03-25T05:06:18.428Z,11.10
2023-03-25T05:08:46.062Z,8.67
2023-03-25T05:11:13.654Z,13.80
2023-03-25T05:13:41.346Z,10.17
2023-03-25T05:16:10.805Z,8.00
2023-03-25T05:18:38.626Z,8.90
2023-03-25T05:21:06.624Z,9.30
2023-03-25T05:23:35.304Z,8.93
2023-03-25T05:26:03.462Z,7.83
2023-03-25T05:28:31.289Z,10.40
2023-03-25T05:30:58.990Z,10.30
2023-03-25T05:33:28.045Z,5.93
2023-03-25T05:35:55.708Z,10.17
2023-03-25T05:38:23.380Z,8.33
2023-03-25T05:40:51.012Z,8.73
2023-03-25T05:43:22.626Z,16.83
2023-03-25T05:45:50.720Z,8.17
2023-03-25T05:48:19.252Z,9.70
2023-03-25T05:50:48.252Z,7.63
2023-03-25T05:53:16.609Z,9.53
2023-03-25T05:55:44.277Z,9.30
2023-03-25T05:58:12.998Z,10.23
2023-03-25T06:00:40.641Z,11.27
2023-03-25T06:03:09.191Z,6.27
2023-03-25T06:05:39.895Z,10.33
2023-03-25T06:08:09.117Z,8.07
2023-03-25T06:10:36.790Z,6.00
2023-03-25T06:13:04.552Z,7.27
2023-03-25T06:15:39.009Z,8.77
2023-03-25T06:18:06.899Z,7.13
2023-03-25T06:20:34.657Z,12.33
2023-03-25T06:23:02.952Z,6.60
2023-03-25T06:25:32.162Z,5.50
2023-03-25T06:28:03.302Z,11.87
2023-03-25T06:30:31.271Z,13.30
2023-03-25T06:33:02.910Z,14.80
2023-03-25T06:35:30.699Z,12.10
2023-03-25T06:37:58.416Z,11.63
2023-03-25T06:40:38.085Z,8.60
2023-03-25T06:43:08.425Z,10.43
2023-03-25T06:45:54.934Z,15.30
2023-03-25T06:48:31.112Z,8.90
2023-03-25T06:50:58.861Z,12.20
2023-03-25T06:53:26.762Z,14.50
2023-03-25T06:55:57.558Z,12.37
2023-03-25T06:58:25.513Z,12.23
2023-03-25T07:00:54.734Z,10.93
2023-03-25T07:03:22.523Z,12.50
2023-03-25T07:05:50.959Z,12.70
2023-03-25T07:08:18.843Z,12.47
2023-03-25T07:10:46.530Z,10.03
2023-03-25T07:13:15.577Z,9.10
2023-03-25T07:15:43.156Z,7.40
2023-03-25T07:18:10.833Z,9.27
2023-03-25T07:20:38.561Z,11.70
2023-03-25T07:23:13.880Z,10.10
2023-03-25T07:25:41.553Z,14.40
2023-03-25T07:28:09.425Z,7.57
2023-03-25T07:30:44.623Z,13.20
2023-03-25T07:33:12.542Z,9.60
2023-03-25T07:35:40.370Z,11.60
2023-03-25T07:38:09.873Z,9.07
2023-03-25T07:40:37.739Z,11.93
2023-03-25T07:43:05.734Z,17.50
2023-03-25T07:45:44.815Z,9.53
2023-03-25T07:48:14.672Z,10.13
2023-03-25T07:50:42.867Z,12.07
2023-03-25T07:53:10.819Z,11.93
2023-03-25T07:55:38.652Z,13.43
2023-03-25T07:58:06.409Z,11.40
2023-03-25T08:00:34.286Z,13.33
2023-03-25T08:03:03.640Z,8.10
2023-03-25T08:05:31.614Z,19.00
2023-03-25T08:08:00.971Z,11.00
2023-03-25T08:10:28.920Z,6.83
2023-03-25T08:12:56.790Z,11.73
2023-03-25T08:15:24.934Z,5.67
2023-03-25T08:17:53.164Z,7.37
2023-03-25T08:20:22.413Z,10.00
2023-03-25T08:22:50.719Z,7.40
2023-03-25T08:25:18.775Z,4.83
2023-03-25T08:27:46.498Z,17.13
2023-03-25T08:30:15.809Z,9.40
2023-03-25T08:32:46.367Z,8.03
2023-03-25T08:35:14.304Z,6.80
2023-03-25T08:37:43.348Z,9.10
2023-03-25T08:40:11.676Z,5.67
2023-03-25T08:42:39.652Z,5.97
2023-03-25T08:45:08.593Z,9.60
2023-03-25T08:47:36.416Z,10.63
2023-03-25T08:50:04.562Z,6.50
2023-03-25T08:52:32.479Z,9.83
2023-03-25T08:55:01.867Z,7.87
2023-03-25T08:57:29.720Z,9.43
2023-03-25T08:59:57.590Z,12.93
2023-03-25T09:02:25.486Z,6.80
2023-03-25T09:04:53.212Z,6.43
2023-03-25T09:07:23.144Z,15.50
2023-03-25T09:09:50.818Z,7.10
2023-03-25T09:12:19.963Z,4.63
2023-03-25T09:14:47.770Z,11.03
2023-03-25T09:17:15.397Z,7.03
2023-03-25T09:19:43.070Z,5.37
2023-03-25T09:22:10.773Z,3.60
2023-03-25T09:24:38.809Z,5.87
2023-03-25T09:27:06.553Z,9.63
2023-03-25T09:29:36.494Z,5.47
2023-03-25T09:32:04.306Z,6.53
2023-03-25T09:34:32.311Z,5.00
2023-03-25T09:37:00.118Z,3.03
2023-03-25T09:39:27.862Z,4.60
2023-03-25T09:42:05.555Z,2.90
2023-03-25T09:44:37.220Z,7.00
2023-03-25T09:47:05.134Z,3.40
2023-03-25T09:49:38.781Z,5.80
2023-03-25T09:52:07.282Z,4.17
2023-03-25T09:54:38.718Z,8.03
2023-03-25T09:57:09.262Z,4.20
2023-03-25T09:59:41.867Z,10.87
2023-03-25T10:02:24.972Z,4.30
2023-03-25T10:05:04.013Z,2.40
2023-03-25T10:07:48.370Z,3.80
2023-03-25T10:10:20.014Z,4.43
2023-03-25T10:12:53.843Z,3.67
2023-03-25T10:15:31.238Z,2.90
2023-03-25T10:18:09.678Z,4.50
2023-03-25T10:20:46.988Z,4.70
2023-03-25T10:23:21.444Z,6.50
2023-03-25T10:25:53.494Z,6.33
2023-03-25T10:28:30.019Z,4.03
2023-03-25T10:31:00.283Z,5.50
2023-03-25T10:33:36.994Z,5.57
2023-03-25T10:36:07.669Z,8.33
2023-03-25T10:38:37.483Z,6.87
2023-03-25T10:41:17.802Z,5.50
2023-03-25T10:43:46.141Z,10.60
2023-03-25T10:46:21.381Z,5.73
2023-03-25T10:48:50.441Z,9.53
2023-03-25T10:51:21.201Z,8.40
2023-03-25T10:53:53.385Z,8.50
2023-03-25T10:56:25.697Z,7.10
2023-03-25T10:58:57.164Z,13.80
2023-03-25T11:01:38.917Z,3.50
2023-03-25T11:04:09.471Z,6.53
2023-03-25T11:06:41.047Z,6.60
2023-03-25T11:09:19.377Z,10.87
2023-03-25T11:11:48.175Z,5.63
2023-03-25T11:14:16.628Z,7.97
2023-03-25T11:16:48.202Z,8.47
2023-03-25T11:19:20.298Z,9.97
2023-03-25T11:21:49.359Z,6.57
2023-03-25T11:24:19.544Z,5.33
2023-03-25T11:26:48.618Z,4.53
2023-03-25T11:29:18.368Z,6.67
2023-03-25T11:31:57.366Z,2.93
2023-03-25T11:34:26.279Z,7.00
2023-03-25T11:36:55.948Z,3.40
2023-03-25T11:39:30.474Z,4.70
2023-03-25T11:41:59.629Z,2.40
2023-03-25T11:44:28.996Z,3.20
2023-03-25T11:46:59.761Z,4.40
2023-03-25T11:49:29.528Z,6.13
2023-03-25T11:52:02.224Z,7.17
2023-03-25T11:54:30.256Z,7.73
2023-03-25T11:56:58.146Z,4.23
2023-03-25T11:59:27.363Z,3.20
2023-03-25T12:02:04.543Z,4.53
2023-03-25T12:04:32.498Z,3.47
2023-03-25T12:07:02.174Z,4.60
2023-03-25T12:09:33.333Z,4.00
2023-03-25T12:12:17.814Z,6.43
2023-03-25T12:14:53.790Z,5.10
2023-03-25T12:17:33.755Z,3.80
2023-03-25T12:20:09.186Z,7.10
2023-03-25T12:22:46.085Z,3.57
2023-03-25T12:25:21.871Z,5.77
2023-03-25T12:27:59.318Z,7.40
2023-03-25T12:30:38.310Z,5.77
2023-03-25T12:33:18.074Z,4.63
2023-03-25T12:35:49.080Z,4.10
2023-03-25T12:38:25.935Z,7.60
2023-03-25T12:41:05.264Z,6.00
2023-03-25T12:43:39.256Z,4.97
2023-03-25T12:46:18.114Z,6.53
2023-03-25T12:48:59.473Z,6.80
2023-03-25T12:51:38.535Z,9.30
2023-03-25T12:54:17.149Z,3.90
2023-03-25T12:56:49.278Z,6.27
2023-03-25T12:59:50.447Z,3.80
2023-03-25T13:02:35.377Z,6.17
2023-03-25T13:05:16.869Z,5.43
2023-03-25T13:07:46.859Z,4.33
2023-03-25T13:10:17.977Z,3.23
2023-03-25T13:12:49.734Z,4.07
2023-03-25T13:15:26.985Z,3.90
2023-03-25T13:17:58.168Z,6.03
2023-03-25T13:20:29.313Z,7.10
2023-03-25T13:23:01.759Z,7.53
2023-03-25T13:25:32.803Z,5.57
2023-03-25T13:28:05.201Z,8.37
2023-03-25T13:30:36.876Z,5.73
2023-03-25T13:33:08.853Z,12.47
2023-03-25T13:35:42.574Z,4.40
2023-03-25T13:38:15.714Z,5.47
2023-03-25T13:40:47.546Z,7.00
2023-03-25T13:43:22.874Z,5.00
2023-03-25T13:45:54.987Z,5.67
2023-03-25T13:48:29.629Z,9.43
2023-03-25T13:51:01.741Z,5.17
2023-03-25T13:53:33.692Z,6.03
2023-03-25T13:56:25.681Z,10.13
2023-03-25T13:59:10.567Z,8.07
2023-03-25T14:01:59.449Z,5.20
2023-03-25T14:05:10.748Z,6.60
2023-03-25T14:07:53.118Z,5.63
2023-03-25T14:10:40.017Z,11.10
2023-03-25T14:13:10.762Z,3.60
2023-03-25T14:15:40.663Z,4.57
2023-03-25T14:18:16.841Z,4.00
2023-03-25T14:20:45.005Z,3.30
2023-03-25T14:23:18.339Z,6.60
2023-03-25T14:25:48.185Z,3.87
2023-03-25T14:28:18.240Z,4.80
2023-03-25T14:30:46.358Z,7.30
2023-03-25T14:33:14.269Z,5.07
2023-03-25T14:35:59.625Z,5.57
2023-03-25T14:38:52.484Z,5.20
2023-03-25T14:41:57.945Z,4.70
2023-03-25T14:44:29.242Z,5.43
2023-03-25T14:47:02.396Z,9.50
2023-03-25T14:49:50.091Z,13.73
2023-03-25T14:52:20.540Z,7.20
2023-03-25T14:54:53.829Z,4.23
2023-03-25T14:57:24.116Z,5.90
2023-03-25T14:59:55.286Z,6.13
2023-03-25T15:02:25.959Z,7.77
2023-03-25T15:04:55.189Z,5.70
2023-03-25T15:07:42.846Z,5.70
2023-03-25T15:10:20.999Z,4.60
2023-03-25T15:12:51.660Z,4.90
2023-03-25T15:15:32.488Z,5.80
2023-03-25T15:18:00.633Z,6.93
2023-03-25T15:20:36.034Z,10.60
2023-03-25T15:23:32.735Z,5.97
2023-03-25T15:26:03.493Z,4.50
2023-03-25T15:28:45.208Z,4.93
2023-03-25T15:31:22.069Z,8.53
2023-03-25T15:34:01.147Z,6.50
2023-03-25T15:36:46.748Z,6.13
2023-03-25T15:39:25.821Z,4.00
2023-03-25T15:42:07.437Z,7.00
2023-03-25T15:44:51.386Z,3.10
2023-03-25T15:47:35.798Z,6.20
2023-03-25T15:50:12.614Z,4.23
2023-03-25T15:53:10.028Z,5.30
2023-03-25T15:55:41.271Z,3.33
2023-03-25T15:58:15.014Z,5.93
2023-03-25T16:00:47.103Z,7.27
2023-03-25T16:03:16.731Z,6.17
2023-03-25T16:05:48.699Z,7.33
2023-03-25T16:08:20.926Z,6.43
2023-03-25T16:10:49.041Z,2.07
2023-03-25T16:13:23.717Z,2.40
2023-03-25T16:15:53.438Z,5.80
2023-03-25T16:18:22.511Z,5.70
2023-03-25T16:20:55.495Z,5.50
2023-03-25T16:23:23.797Z,4.40
2023-03-25T16:25:54.001Z,11.23
2023-03-25T16:28:27.542Z,8.00
2023-03-25T16:30:56.239Z,4.43
2023-03-25T16:33:28.032Z,4.03
2023-03-25T16:35:59.746Z,5.77
2023-03-25T16:38:27.996Z,5.23
2023-03-25T16:41:01.975Z,5.17
2023-03-25T16:43:31.702Z,4.13
2023-03-25T16:46:00.753Z,6.70
2023-03-25T16:48:30.642Z,2.10
2023-03-25T16:51:00.752Z,2.73
2023-03-25T16:53:28.861Z,3.83
2023-03-25T16:56:05.417Z,2.67
2023-03-25T16:58:37.508Z,4.40
2023-03-25T17:01:10.592Z,5.30
2023-03-25T17:03:44.683Z,2.50
2023-03-25T17:06:20.037Z,2.93
2023-03-25T17:08:50.986Z,2.40
2023-03-25T17:11:18.661Z,1.80
2023-03-25T17:13:51.831Z,3.30
2023-03-25T17:16:19.930Z,4.17
2023-03-25T17:18:48.747Z,4.50
2023-03-25T17:21:26.497Z,3.63
2023-03-25T17:23:55.009Z,7.10
2023-03-25T17:26:25.423Z,3.50
2023-03-25T17:29:02.951Z,3.80
2023-03-25T17:31:34.029Z,4.73
2023-03-25T17:34:03.140Z,4.83
2023-03-25T17:36:32.239Z,5.67
2023-03-25T17:39:03.617Z,4.33
2023-03-25T17:41:36.886Z,4.07
2023-03-25T17:44:06.549Z,3.67
2023-03-25T17:46:36.135Z,4.63
2023-03-25T17:49:13.849Z,4.77
2023-03-25T17:51:42.160Z,5.80
2023-03-25T17:54:09.960Z,4.57
2023-03-25T17:56:38.505Z,5.30
2023-03-25T17:59:12.130Z,5.67
2023-03-25T18:01:42.460Z,3.63
2023-03-25T18:04:15.069Z,3.60
2023-03-25T18:06:43.944Z,4.73
2023-03-25T18:09:15.878Z,4.77
2023-03-25T18:11:44.681Z,5.40
2023-03-25T18:14:13.601Z,4.20
2023-03-25T18:16:41.491Z,5.70
2023-03-25T18:19:12.172Z,3.03
2023-03-25T18:21:41.864Z,3.73
2023-03-25T18:24:10.274Z,4.63
2023-03-25T18:26:38.267Z,7.83
2023-03-25T18:29:10.887Z,3.00
2023-03-25T18:31:40.797Z,7.07
2023-03-25T18:34:09.068Z,4.27
2023-03-25T18:36:37.781Z,3.80
2023-03-25T18:39:08.356Z,7.77
2023-03-25T18:41:36.045Z,4.20
2023-03-25T18:44:04.587Z,9.27
2023-03-25T18:46:32.630Z,5.23
2023-03-25T18:49:02.882Z,5.77
2023-03-25T18:51:31.413Z,4.10
2023-03-25T18:53:59.598Z,5.70
2023-03-25T18:56:27.887Z,4.40
2023-03-25T18:58:57.465Z,4.47
2023-03-25T19:01:25.524Z,4.30
2023-03-25T19:03:53.706Z,2.30
2023-03-25T19:06:23.172Z,4.67
2023-03-25T19:08:51.430Z,4.00
2023-03-25T19:11:22.172Z,4.50
2023-03-25T19:13:51.042Z,7.97
2023-03-25T19:16:19.507Z,12.83
2023-03-25T19:18:48.170Z,5.47
2023-03-25T19:21:18.291Z,8.77
2023-03-25T19:23:48.393Z,4.37
2023-03-25T19:26:16.147Z,9.07
2023-03-25T19:28:43.921Z,4.73
2023-03-25T19:31:15.555Z,4.13
2023-03-25T19:33:43.460Z,4.73
2023-03-25T19:36:15.154Z,9.30
2023-03-25T19:38:43.197Z,7.40
2023-03-25T19:41:13.982Z,9.63
2023-03-25T19:43:41.664Z,6.67
2023-03-25T19:46:09.531Z,11.27
2023-03-25T19:48:37.217Z,9.00
2023-03-25T19:51:05.360Z,5.33
2023-03-25T19:53:33.115Z,10.30
2023-03-25T19:56:03.398Z,11.77
2023-03-25T19:58:32.669Z,4.77
2023-03-25T20:01:00.858Z,14.90
2023-03-25T20:03:31.580Z,11.50
2023-03-25T20:05:59.987Z,7.23
2023-03-25T20:08:29.438Z,19.20
2023-03-25T20:10:57.443Z,22.73
2023-03-25T20:13:25.343Z,13.63
2023-03-25T20:15:57.257Z,9.40
2023-03-25T20:18:25.060Z,18.37
2023-03-25T20:20:52.742Z,11.37
2023-03-25T20:23:21.984Z,9.07
2023-03-25T20:25:52.404Z,15.30
2023-03-25T20:28:20.416Z,16.50
2023-03-25T20:30:48.378Z,19.10
2023-03-25T20:33:17.431Z,18.20
2023-03-25T20:35:45.416Z,10.63
2023-03-25T20:38:15.902Z,11.37
2023-03-25T20:40:45.249Z,7.43
2023-03-25T20:43:14.981Z,8.47
2023-03-25T20:45:44.285Z,11.70
2023-03-25T20:48:12.612Z,10.00
2023-03-25T20:50:42.474Z,10.80
2023-03-25T20:53:12.208Z,8.83
2023-03-25T20:55:40.698Z,13.90
2023-03-25T20:58:11.447Z,6.63
2023-03-25T21:00:39.817Z,18.27
2023-03-25T21:03:07.891Z,16.33
2023-03-25T21:05:35.968Z,9.77
2023-03-25T21:08:05.915Z,11.80
2023-03-25T21:10:33.735Z,5.43
2023-03-25T21:13:01.729Z,11.10
2023-03-25T21:15:31.389Z,7.43
2023-03-25T21:17:59.498Z,12.43
2023-03-25T21:20:28.772Z,8.47
2023-03-25T21:22:59.132Z,7.90
2023-03-25T21:25:34.156Z,8.70
2023-03-25T21:28:02.573Z,10.97
2023-03-25T21:30:30.281Z,10.23
2023-03-25T21:32:58.151Z,20.47
2023-03-25T21:35:27.872Z,17.77
2023-03-25T21:37:55.775Z,11.93
2023-03-25T21:40:23.513Z,11.97
2023-03-25T21:42:52.527Z,10.80
2023-03-25T21:45:20.289Z,15.13
2023-03-25T21:50:21.510Z,18.77
2023-03-25T21:52:49.078Z,15.37
2023-03-25T21:55:17.774Z,12.20
2023-03-25T21:57:47.801Z,10.37
2023-03-25T22:00:19.688Z,9.43
2023-03-25T22:02:48.098Z,15.50
2023-03-25T22:05:17.423Z,20.13
2023-03-25T22:07:45.024Z,6.23
2023-03-25T22:10:12.808Z,17.23
2023-03-25T22:12:41.590Z,8.13
2023-03-25T22:15:11.118Z,17.30
2023-03-25T22:17:43.744Z,14.47
2023-03-25T22:20:13.598Z,11.10
2023-03-25T22:22:42.482Z,16.67
2023-03-25T22:25:10.842Z,18.87
2023-03-25T22:27:38.596Z,18.57
2023-03-25T22:30:09.389Z,13.43
2023-03-25T22:32:37.537Z,16.43
2023-03-25T22:35:08.763Z,14.60
2023-03-25T22:37:37.788Z,13.07
2023-03-25T22:40:08.511Z,18.50
2023-03-25T22:42:36.269Z,12.03
2023-03-25T22:45:04.249Z,18.70
2023-03-25T22:47:31.785Z,15.50
2023-03-25T22:49:59.473Z,21.70
2023-03-25T22:52:30.203Z,12.13
2023-03-25T22:54:58.431Z,16.50
2023-03-25T22:57:26.296Z,16.37
2023-03-25T22:59:54.072Z,16.87
2023-03-25T23:02:22.104Z,13.50
2023-03-25T23:04:50.332Z,14.60
2023-03-25T23:07:18.233Z,17.10
2023-03-25T23:09:50.035Z,14.80
2023-03-25T23:12:21.894Z,13.93
2023-03-25T23:14:50.833Z,8.63
2023-03-25T23:17:29.830Z,12.10
2023-03-25T23:19:57.809Z,8.43
2023-03-25T23:22:26.176Z,10.23
2023-03-25T23:24:56.189Z,15.17
2023-03-25T23:27:27.076Z,15.60
2023-03-25T23:29:55.049Z,8.80
2023-03-25T23:32:23.409Z,12.57
2023-03-25T23:34:51.499Z,14.20
2023-03-25T23:37:19.031Z,9.07
2023-03-25T23:39:47.001Z,10.60
2023-03-25T23:42:16.212Z,15.00
2023-03-25T23:44:44.375Z,20.23
2023-03-25T23:47:11.956Z,19.70
2023-03-25T23:49:39.512Z,20.80
2023-03-25T23:52:11.529Z,18.00
2023-03-25T23:54:39.886Z,22.93
2023-03-25T23:57:07.614Z,23.30
2023-03-25T23:59:36.623Z,12.93
